createdAt,value
2019-02-21T00:01:09.060Z,2.82
2019-02-21T00:03:35.661Z,2.82
2019-02-21T00:06:02.492Z,2.85
2019-02-21T00:08:29.098Z,2.85
2019-02-21T00:10:55.708Z,2.86
2019-02-21T00:13:22.319Z,2.85
2019-02-21T00:15:49.031Z,2.82
2019-02-21T00:18:15.632Z,2.78
2019-02-21T00:20:42.280Z,2.76
2019-02-21T00:23:08.906Z,2.73
2019-02-21T00:25:35.585Z,2.72
2019-02-21T00:28:02.168Z,2.72
2019-02-21T00:30:35.139Z,2.71
2019-02-21T00:32:57.274Z,2.71
2019-02-21T00:35:23.865Z,2.72
2019-02-21T00:37:50.465Z,2.72
2019-02-21T00:40:17.065Z,2.73
2019-02-21T00:42:43.689Z,2.75
2019-02-21T00:45:10.291Z,2.77
2019-02-21T00:47:36.997Z,2.79
2019-02-21T00:50:03.604Z,2.81
2019-02-21T00:52:31.478Z,2.82
2019-02-21T00:55:04.986Z,2.84
2019-02-21T00:57:31.579Z,2.84
2019-02-21T00:59:58.189Z,2.86
2019-02-21T01:02:24.805Z,2.87
2019-02-21T01:04:51.415Z,2.88
2019-02-21T01:07:18.003Z,2.86
2019-02-21T01:09:44.617Z,2.85
2019-02-21T01:12:11.308Z,2.84
2019-02-21T01:14:38.022Z,2.85
2019-02-21T01:17:04.612Z,2.85
2019-02-21T01:19:31.229Z,2.87
2019-02-21T01:21:57.943Z,2.88
2019-02-21T01:24:24.653Z,2.87
2019-02-21T01:26:51.261Z,2.85
2019-02-21T01:29:17.877Z,2.85
2019-02-21T01:31:44.600Z,2.82
2019-02-21T01:34:11.312Z,2.79
2019-02-21T01:36:37.905Z,2.77
2019-02-21T01:39:04.708Z,2.75
2019-02-21T01:41:31.314Z,2.73
2019-02-21T01:43:57.914Z,2.70
2019-02-21T01:46:24.542Z,2.67
2019-02-21T01:48:51.134Z,2.64
2019-02-21T01:51:17.740Z,2.62
2019-02-21T01:53:44.436Z,2.60
2019-02-21T01:56:11.050Z,2.59
2019-02-21T01:58:37.653Z,2.58
2019-02-21T02:01:08.662Z,2.56
2019-02-21T02:03:32.770Z,2.51
2019-02-21T02:05:59.412Z,2.49
2019-02-21T02:08:26.114Z,2.47
2019-02-21T02:10:52.714Z,2.47
2019-02-21T02:13:24.572Z,2.46
2019-02-21T02:15:54.008Z,2.46
2019-02-21T02:18:20.597Z,2.44
2019-02-21T02:20:47.217Z,2.44
2019-02-21T02:23:13.833Z,2.43
2019-02-21T02:25:40.446Z,2.44
2019-02-21T02:28:07.165Z,2.45
2019-02-21T02:30:33.875Z,2.46
2019-02-21T02:33:00.505Z,2.48
2019-02-21T02:35:27.206Z,2.50
2019-02-21T02:37:53.834Z,2.51
2019-02-21T02:40:20.445Z,2.53
2019-02-21T02:42:47.174Z,2.55
2019-02-21T02:45:13.771Z,2.54
2019-02-21T02:47:40.386Z,2.54
2019-02-21T02:50:07.023Z,2.52
2019-02-21T02:52:33.754Z,2.49
2019-02-21T02:55:00.444Z,2.48
2019-02-21T02:57:27.156Z,2.44
2019-02-21T02:59:53.763Z,2.43
2019-02-21T03:02:20.359Z,2.39
2019-02-21T03:04:47.054Z,2.37
2019-02-21T03:07:13.683Z,2.34
2019-02-21T03:09:40.379Z,2.33
2019-02-21T03:12:07.075Z,2.35
2019-02-21T03:14:33.683Z,2.35
2019-02-21T03:17:00.293Z,2.36
2019-02-21T03:19:26.922Z,2.35
2019-02-21T03:21:53.537Z,2.37
2019-02-21T03:24:20.159Z,2.37
2019-02-21T03:26:46.829Z,2.37
2019-02-21T03:29:13.469Z,2.39
2019-02-21T03:31:53.519Z,2.40
2019-02-21T03:34:18.391Z,2.37
2019-02-21T03:36:45.097Z,2.36
2019-02-21T03:39:11.694Z,2.33
2019-02-21T03:41:38.317Z,2.31
2019-02-21T03:44:05.010Z,2.28
2019-02-21T03:46:31.634Z,2.23
2019-02-21T03:48:58.353Z,2.18
2019-02-21T03:51:24.965Z,2.17
2019-02-21T03:53:51.655Z,2.15
2019-02-21T03:56:18.244Z,2.13
2019-02-21T03:58:44.862Z,2.14
2019-02-21T04:01:11.472Z,2.13
2019-02-21T04:03:38.056Z,2.11
2019-02-21T04:06:04.683Z,2.10
2019-02-21T04:08:31.378Z,2.06
2019-02-21T04:10:58.011Z,2.07
2019-02-21T04:13:24.615Z,2.08
2019-02-21T04:15:51.335Z,2.10
2019-02-21T04:18:17.943Z,2.11
2019-02-21T04:20:44.649Z,2.12
2019-02-21T04:23:11.260Z,2.11
2019-02-21T04:25:37.880Z,2.11
2019-02-21T04:28:04.502Z,2.08
2019-02-21T04:30:31.102Z,2.05
2019-02-21T04:32:57.729Z,2.01
2019-02-21T04:35:24.348Z,1.98
2019-02-21T04:37:51.043Z,1.96
2019-02-21T04:40:17.650Z,1.93
2019-02-21T04:42:44.405Z,1.90
2019-02-21T04:45:11.099Z,1.85
2019-02-21T04:47:37.696Z,1.82
2019-02-21T04:50:04.424Z,1.77
2019-02-21T04:52:31.122Z,1.73
2019-02-21T04:54:57.715Z,1.70
2019-02-21T04:57:24.324Z,1.67
2019-02-21T04:59:50.916Z,1.66
2019-02-21T05:02:28.141Z,1.63
2019-02-21T05:04:46.173Z,1.61
2019-02-21T05:07:12.778Z,1.59
2019-02-21T05:09:39.394Z,1.57
2019-02-21T05:12:06.110Z,1.57
2019-02-21T05:14:32.803Z,1.59
2019-02-21T05:17:00.716Z,1.64
2019-02-21T05:19:27.432Z,1.70
2019-02-21T05:21:54.039Z,1.74
2019-02-21T05:24:20.764Z,1.80
2019-02-21T05:26:51.221Z,1.84
2019-02-21T05:29:17.948Z,1.86
2019-02-21T05:32:00.784Z,1.87
2019-02-21T05:34:41.369Z,1.88
2019-02-21T05:37:30.373Z,1.90
2019-02-21T05:40:24.566Z,1.90
2019-02-21T05:43:10.358Z,1.86
2019-02-21T05:45:47.339Z,1.79
2019-02-21T05:48:26.602Z,1.69
2019-02-21T05:51:05.085Z,2.41
2019-02-21T05:53:53.994Z,3.51
2019-02-21T05:56:31.015Z,4.22
2019-02-21T05:59:03.733Z,4.84
2019-02-21T06:01:58.596Z,5.22
2019-02-21T06:04:42.928Z,5.56
2019-02-21T06:07:27.155Z,5.83
2019-02-21T06:10:08.109Z,6.07
2019-02-21T06:12:42.200Z,6.32
2019-02-21T06:15:18.313Z,6.51
2019-02-21T06:18:10.483Z,6.70
2019-02-21T06:20:49.432Z,6.74
2019-02-21T06:23:25.190Z,6.69
2019-02-21T06:26:20.520Z,6.48
2019-02-21T06:29:06.651Z,6.34
2019-02-21T06:31:33.352Z,5.61
2019-02-21T06:33:59.953Z,4.90
2019-02-21T06:36:26.570Z,4.34
2019-02-21T06:38:53.262Z,3.96
2019-02-21T06:41:19.895Z,3.67
2019-02-21T06:43:46.511Z,3.51
2019-02-21T06:46:13.830Z,3.40
2019-02-21T06:48:40.628Z,3.34
2019-02-21T06:51:07.228Z,3.29
2019-02-21T06:53:33.820Z,3.23
2019-02-21T06:56:00.425Z,3.34
2019-02-21T06:58:27.024Z,3.66
2019-02-21T07:00:53.661Z,4.23
2019-02-21T07:03:20.352Z,4.62
2019-02-21T07:05:46.972Z,4.59
2019-02-21T07:08:13.666Z,4.41
2019-02-21T07:10:40.303Z,4.16
2019-02-21T07:13:06.910Z,4.01
2019-02-21T07:15:33.544Z,3.90
2019-02-21T07:18:00.229Z,3.77
2019-02-21T07:20:26.837Z,3.71
2019-02-21T07:22:53.468Z,3.67
2019-02-21T07:25:50.563Z,3.67
2019-02-21T07:28:17.238Z,3.69
2019-02-21T07:30:44.097Z,3.71
2019-02-21T07:33:10.732Z,3.71
2019-02-21T07:35:37.473Z,3.70
2019-02-21T07:38:04.178Z,3.77
2019-02-21T07:40:30.900Z,3.91
2019-02-21T07:42:58.766Z,3.98
2019-02-21T07:45:25.531Z,4.02
2019-02-21T07:47:52.216Z,4.14
2019-02-21T07:50:18.862Z,4.29
2019-02-21T07:52:45.581Z,4.40
2019-02-21T07:55:17.049Z,4.46
2019-02-21T07:57:43.733Z,4.53
2019-02-21T08:00:10.459Z,4.60
2019-02-21T08:02:37.073Z,4.68
2019-02-21T08:05:03.958Z,4.77
2019-02-21T08:07:30.675Z,4.84
2019-02-21T08:09:57.271Z,4.91
2019-02-21T08:12:23.872Z,4.98
2019-02-21T08:14:50.593Z,5.09
2019-02-21T08:17:17.229Z,5.17
2019-02-21T08:19:43.942Z,5.25
2019-02-21T08:22:10.657Z,5.36
2019-02-21T08:24:37.357Z,5.47
2019-02-21T08:27:03.972Z,5.60
2019-02-21T08:29:30.597Z,5.73
2019-02-21T08:31:57.211Z,5.84
2019-02-21T08:34:31.179Z,5.95
2019-02-21T08:36:57.785Z,6.08
2019-02-21T08:39:24.423Z,6.19
2019-02-21T08:41:51.183Z,6.34
2019-02-21T08:44:17.829Z,6.48
2019-02-21T08:46:44.531Z,6.62
2019-02-21T08:49:11.244Z,6.77
2019-02-21T08:51:37.959Z,6.87
2019-02-21T08:54:05.704Z,6.93
2019-02-21T08:56:32.614Z,6.93
2019-02-21T08:58:59.312Z,6.91
2019-02-21T09:01:26.035Z,6.94
2019-02-21T09:03:52.650Z,7.20
2019-02-21T09:06:19.367Z,7.49
2019-02-21T09:08:45.973Z,7.72
2019-02-21T09:11:12.572Z,7.99
2019-02-21T09:13:41.588Z,8.14
2019-02-21T09:16:07.713Z,8.09
2019-02-21T09:21:44.021Z,7.96
2019-02-21T09:24:13.497Z,7.95
2019-02-21T09:26:39.442Z,7.95
2019-02-21T09:29:06.156Z,7.95
2019-02-21T09:31:32.875Z,7.99
2019-02-21T09:33:59.498Z,8.01
2019-02-21T09:36:26.120Z,8.05
2019-02-21T09:38:52.728Z,8.08
2019-02-21T09:41:19.362Z,8.10
2019-02-21T09:43:46.050Z,8.13
2019-02-21T09:46:12.704Z,8.16
2019-02-21T09:48:39.314Z,8.19
2019-02-21T09:51:05.970Z,8.26
2019-02-21T09:53:32.783Z,8.31
2019-02-21T09:55:59.421Z,8.36
2019-02-21T09:58:26.145Z,8.41
2019-02-21T10:00:52.886Z,8.43
2019-02-21T10:03:19.655Z,8.48
2019-02-21T10:05:46.405Z,8.62
2019-02-21T10:08:13.127Z,8.74
2019-02-21T10:10:39.863Z,8.84
2019-02-21T10:13:06.490Z,8.94
2019-02-21T10:15:33.243Z,9.08
2019-02-21T10:17:59.972Z,9.21
2019-02-21T10:20:26.754Z,9.33
2019-02-21T10:22:53.447Z,9.40
2019-02-21T10:25:22.931Z,9.46
2019-02-21T10:27:49.485Z,9.52
2019-02-21T10:30:16.582Z,9.58
2019-02-21T10:32:43.185Z,9.60
2019-02-21T10:35:09.874Z,9.58
2019-02-21T10:37:36.599Z,9.58
2019-02-21T10:40:03.462Z,9.52
2019-02-21T10:42:30.193Z,9.50
2019-02-21T10:44:56.956Z,9.56
2019-02-21T10:47:23.699Z,9.61
2019-02-21T10:49:50.303Z,9.70
2019-02-21T10:52:16.928Z,9.91
2019-02-21T10:54:43.579Z,10.12
2019-02-21T10:57:10.210Z,10.28
2019-02-21T10:59:46.312Z,10.33
2019-02-21T11:02:05.358Z,10.40
2019-02-21T11:04:32.049Z,10.43
2019-02-21T11:06:58.758Z,10.39
2019-02-21T11:09:25.353Z,10.39
2019-02-21T11:11:52.064Z,10.44
2019-02-21T11:14:18.698Z,10.56
2019-02-21T11:16:45.479Z,10.71
2019-02-21T11:19:12.140Z,10.81
2019-02-21T11:21:38.833Z,10.93
2019-02-21T11:24:05.468Z,11.00
2019-02-21T11:26:32.176Z,11.06
2019-02-21T11:28:58.810Z,11.18
2019-02-21T11:31:27.730Z,11.38
2019-02-21T11:33:53.919Z,11.62
2019-02-21T11:36:20.509Z,11.88
2019-02-21T11:38:47.235Z,11.99
2019-02-21T11:41:13.921Z,12.12
2019-02-21T11:43:40.508Z,12.13
2019-02-21T11:46:07.124Z,12.10
2019-02-21T11:48:33.832Z,12.08
2019-02-21T11:51:00.546Z,12.06
2019-02-21T11:53:27.255Z,12.00
2019-02-21T11:55:53.881Z,11.93
2019-02-21T11:58:20.568Z,11.85
2019-02-21T12:00:47.284Z,11.87
2019-02-21T12:03:14.015Z,11.91
2019-02-21T12:05:40.748Z,12.19
2019-02-21T12:08:07.437Z,12.53
2019-02-21T12:10:34.066Z,12.84
2019-02-21T12:13:00.795Z,12.93
2019-02-21T12:15:27.407Z,13.00
2019-02-21T12:17:54.131Z,12.99
2019-02-21T12:20:20.753Z,12.82
2019-02-21T12:22:47.394Z,12.67
2019-02-21T12:25:14.331Z,12.67
2019-02-21T12:27:41.058Z,12.78
2019-02-21T12:30:08.637Z,12.90
2019-02-21T12:32:35.283Z,12.81
2019-02-21T12:35:01.990Z,12.80
2019-02-21T12:37:28.718Z,12.76
2019-02-21T12:39:55.355Z,12.64
2019-02-21T12:42:22.071Z,12.55
2019-02-21T12:44:48.775Z,12.48
2019-02-21T12:47:15.400Z,12.38
2019-02-21T12:49:42.023Z,12.25
2019-02-21T12:52:08.745Z,12.06
2019-02-21T12:54:35.419Z,11.89
2019-02-21T12:57:02.047Z,11.75
2019-02-21T12:59:28.685Z,11.54
2019-02-21T13:01:55.398Z,11.47
2019-02-21T13:04:22.009Z,11.46
2019-02-21T13:06:48.728Z,11.50
2019-02-21T13:09:15.457Z,11.55
2019-02-21T13:11:42.174Z,11.62
2019-02-21T13:14:08.860Z,11.74
2019-02-21T13:16:35.450Z,11.78
2019-02-21T13:19:02.056Z,11.78
2019-02-21T13:21:28.763Z,11.74
2019-02-21T13:23:55.417Z,11.69
2019-02-21T13:26:22.036Z,11.69
2019-02-21T13:28:48.666Z,11.73
2019-02-21T13:31:15.426Z,11.75
2019-02-21T13:33:42.147Z,11.83
2019-02-21T13:36:34.863Z,11.98
2019-02-21T13:39:01.466Z,11.98
2019-02-21T13:41:28.151Z,11.98
2019-02-21T13:43:54.770Z,11.98
2019-02-21T13:46:21.392Z,12.00
2019-02-21T13:48:48.000Z,12.04
2019-02-21T13:51:14.662Z,12.05
2019-02-21T13:53:41.332Z,12.01
2019-02-21T13:56:08.076Z,11.92
2019-02-21T13:58:34.840Z,11.88
2019-02-21T14:01:01.460Z,11.85
2019-02-21T14:03:28.067Z,11.88
2019-02-21T14:06:03.243Z,11.84
2019-02-21T14:08:23.178Z,11.77
2019-02-21T14:10:49.889Z,11.77
2019-02-21T14:13:16.540Z,11.86
2019-02-21T14:15:43.186Z,11.96
2019-02-21T14:18:09.895Z,12.01
2019-02-21T14:20:45.052Z,12.40
2019-02-21T14:23:05.019Z,12.84
2019-02-21T14:25:40.390Z,12.89
2019-02-21T14:28:00.186Z,12.83
2019-02-21T14:30:26.793Z,12.81
2019-02-21T14:32:53.391Z,12.77
2019-02-21T14:35:20.124Z,12.80
2019-02-21T14:37:46.839Z,12.89
2019-02-21T14:40:13.540Z,13.09
2019-02-21T14:42:40.161Z,13.28
2019-02-21T14:45:08.059Z,13.38
2019-02-21T14:47:34.757Z,13.25
2019-02-21T14:50:01.386Z,12.96
2019-02-21T14:52:28.076Z,12.70
2019-02-21T14:54:54.721Z,12.49
2019-02-21T14:57:21.445Z,12.27
2019-02-21T14:59:48.144Z,12.18
2019-02-21T15:02:14.819Z,12.07
2019-02-21T15:04:41.525Z,11.89
2019-02-21T15:07:08.255Z,11.69
2019-02-21T15:09:34.978Z,11.55
2019-02-21T15:12:01.603Z,11.41
2019-02-21T15:14:28.319Z,11.28
2019-02-21T15:16:54.933Z,11.17
2019-02-21T15:19:21.698Z,11.09
2019-02-21T15:21:48.431Z,11.07
2019-02-21T15:24:15.154Z,11.02
2019-02-21T15:26:41.903Z,11.05
2019-02-21T15:29:08.515Z,11.04
2019-02-21T15:31:35.159Z,11.05
2019-02-21T15:34:01.899Z,10.94
2019-02-21T15:36:37.917Z,10.72
2019-02-21T15:38:57.185Z,10.50
2019-02-21T15:41:23.902Z,10.24
2019-02-21T15:43:50.617Z,9.95
2019-02-21T15:46:17.285Z,9.71
2019-02-21T15:48:44.744Z,9.52
2019-02-21T15:51:11.657Z,9.29
2019-02-21T15:53:38.323Z,9.10
2019-02-21T15:56:05.092Z,8.92
2019-02-21T15:58:31.804Z,8.75
2019-02-21T16:00:58.550Z,8.61
2019-02-21T16:03:25.142Z,8.58
2019-02-21T16:05:51.790Z,8.52
2019-02-21T16:08:18.394Z,8.52
2019-02-21T16:10:45.039Z,8.53
2019-02-21T16:13:11.901Z,8.42
2019-02-21T16:15:38.801Z,8.33
2019-02-21T16:18:05.506Z,8.27
2019-02-21T16:20:32.122Z,8.21
2019-02-21T16:22:58.755Z,8.19
2019-02-21T16:25:25.483Z,8.12
2019-02-21T16:27:52.230Z,8.09
2019-02-21T16:30:21.706Z,8.05
2019-02-21T16:32:47.528Z,8.04
2019-02-21T16:35:14.255Z,8.05
2019-02-21T16:37:41.021Z,8.00
2019-02-21T16:40:08.593Z,7.96
2019-02-21T16:42:35.336Z,7.87
2019-02-21T16:45:02.165Z,7.77
2019-02-21T16:47:28.920Z,7.67
2019-02-21T16:49:58.176Z,7.55
2019-02-21T16:52:24.213Z,7.40
2019-02-21T16:54:51.034Z,7.27
2019-02-21T16:57:17.773Z,7.16
2019-02-21T16:59:44.507Z,7.03
2019-02-21T17:02:11.155Z,6.92
2019-02-21T17:04:37.811Z,6.88
2019-02-21T17:07:13.333Z,6.87
2019-02-21T17:09:33.103Z,6.88
2019-02-21T17:11:59.822Z,6.89
2019-02-21T17:14:26.583Z,6.88
2019-02-21T17:16:53.313Z,6.89
2019-02-21T17:19:20.031Z,6.88
2019-02-21T17:21:46.778Z,6.89
2019-02-21T17:24:13.537Z,6.90
2019-02-21T17:26:40.269Z,6.89
2019-02-21T17:29:07.023Z,6.90
2019-02-21T17:31:33.801Z,6.89
2019-02-21T17:34:00.569Z,6.88
2019-02-21T17:36:27.334Z,6.85
2019-02-21T17:38:54.058Z,6.80
2019-02-21T17:41:20.802Z,6.72
2019-02-21T17:43:48.046Z,6.65
2019-02-21T17:46:14.943Z,6.58
2019-02-21T17:48:41.967Z,6.54
2019-02-21T17:51:08.722Z,6.49
2019-02-21T17:53:35.467Z,6.46
2019-02-21T17:56:02.233Z,6.45
2019-02-21T17:58:29.006Z,6.45
2019-02-21T18:00:55.757Z,6.45
2019-02-21T18:03:22.475Z,6.42
2019-02-21T18:05:49.303Z,6.36
2019-02-21T18:08:16.078Z,6.35
2019-02-21T18:10:42.802Z,6.34
2019-02-21T18:13:09.605Z,6.32
2019-02-21T18:15:36.334Z,6.29
2019-02-21T18:18:03.173Z,6.29
2019-02-21T18:20:30.028Z,6.29
2019-02-21T18:22:56.942Z,6.33
2019-02-21T18:25:28.513Z,6.33
2019-02-21T18:27:55.314Z,6.30
2019-02-21T18:30:22.102Z,6.22
2019-02-21T18:32:48.871Z,6.14
2019-02-21T18:35:15.619Z,6.06
2019-02-21T18:37:49.903Z,6.00
2019-02-21T18:40:18.603Z,5.93
2019-02-21T18:42:45.391Z,5.82
2019-02-21T18:45:12.168Z,5.72
2019-02-21T18:47:38.970Z,5.74
2019-02-21T18:50:06.144Z,5.85
2019-02-21T18:52:33.731Z,6.02
2019-02-21T18:55:00.870Z,6.14
2019-02-21T18:57:28.766Z,6.21
2019-02-21T18:59:57.249Z,6.24
2019-02-21T19:02:24.380Z,6.30
2019-02-21T19:04:51.280Z,6.35
2019-02-21T19:07:19.032Z,6.36
2019-02-21T19:09:47.298Z,6.34
2019-02-21T19:12:14.126Z,6.32
2019-02-21T19:14:40.961Z,6.27
2019-02-21T19:17:09.107Z,6.22
2019-02-21T19:19:36.111Z,6.17
2019-02-21T19:22:02.970Z,6.11
2019-02-21T19:24:29.840Z,6.07
2019-02-21T19:26:58.222Z,6.05
2019-02-21T19:29:25.129Z,6.03
2019-02-21T19:31:53.533Z,6.04
2019-02-21T19:34:22.592Z,6.05
2019-02-21T19:36:49.539Z,6.02
2019-02-21T19:39:16.368Z,5.97
2019-02-21T19:41:43.415Z,5.85
2019-02-21T19:44:10.364Z,5.75
2019-02-21T19:46:38.336Z,5.71
2019-02-21T19:49:05.254Z,5.71
2019-02-21T19:51:34.374Z,5.74
2019-02-21T19:54:01.413Z,5.74
2019-02-21T19:56:28.283Z,5.73
2019-02-21T19:58:55.533Z,5.73
2019-02-21T20:01:22.738Z,5.71
2019-02-21T20:03:50.716Z,5.73
2019-02-21T20:06:17.808Z,5.76
2019-02-21T20:08:45.205Z,5.77
2019-02-21T20:11:12.320Z,5.78
2019-02-21T20:13:39.263Z,5.81
2019-02-21T20:16:08.888Z,5.83
2019-02-21T20:18:35.741Z,5.84
2019-02-21T20:21:02.717Z,5.83
2019-02-21T20:23:30.525Z,5.79
2019-02-21T20:25:57.382Z,5.74
2019-02-21T20:28:26.306Z,5.70
2019-02-21T20:30:53.152Z,5.69
2019-02-21T20:33:19.926Z,5.71
2019-02-21T20:35:47.004Z,5.74
2019-02-21T20:38:13.803Z,5.74
2019-02-21T20:40:41.681Z,5.78
2019-02-21T20:43:08.788Z,5.83
2019-02-21T20:45:35.609Z,5.87
2019-02-21T20:48:06.242Z,5.86
2019-02-21T20:50:33.086Z,5.88
2019-02-21T20:52:59.900Z,5.86
2019-02-21T20:55:26.720Z,5.86
2019-02-21T20:57:53.652Z,5.80
2019-02-21T21:00:21.220Z,5.71
2019-02-21T21:02:48.027Z,5.60
2019-02-21T21:05:14.816Z,5.47
2019-02-21T21:07:42.199Z,5.37
2019-02-21T21:10:10.090Z,5.29
2019-02-21T21:12:38.185Z,5.27
2019-02-21T21:15:05.121Z,5.25
2019-02-21T21:17:34.136Z,5.21
2019-02-21T21:20:00.925Z,5.18
2019-02-21T21:22:27.680Z,5.12
2019-02-21T21:24:54.451Z,5.07
2019-02-21T21:27:21.248Z,5.01
2019-02-21T21:29:49.067Z,4.96
2019-02-21T21:32:15.829Z,4.88
2019-02-21T21:34:42.631Z,4.82
2019-02-21T21:37:09.668Z,4.76
2019-02-21T21:39:36.343Z,4.73
2019-02-21T21:42:03.167Z,4.71
2019-02-21T21:44:29.932Z,4.70
2019-02-21T21:46:56.698Z,4.70
2019-02-21T21:49:23.436Z,4.71
2019-02-21T21:51:50.177Z,4.70
2019-02-21T21:54:16.968Z,4.71
2019-02-21T21:56:43.762Z,4.72
2019-02-21T21:59:10.504Z,4.74
2019-02-21T22:01:37.309Z,4.75
2019-02-21T22:04:04.147Z,4.78
2019-02-21T22:06:30.817Z,4.80
2019-02-21T22:09:04.456Z,4.87
2019-02-21T22:11:26.001Z,4.93
2019-02-21T22:13:52.733Z,4.96
2019-02-21T22:16:19.430Z,5.01
2019-02-21T22:18:46.139Z,5.04
2019-02-21T22:21:12.834Z,5.10
2019-02-21T22:23:39.451Z,5.19
2019-02-21T22:26:06.081Z,5.29
2019-02-21T22:28:32.699Z,5.34
2019-02-21T22:30:59.406Z,5.41
2019-02-21T22:33:26.469Z,5.46
2019-02-21T22:35:53.195Z,5.46
2019-02-21T22:38:19.873Z,5.47
2019-02-21T22:40:46.548Z,5.46
2019-02-21T22:43:13.241Z,5.45
2019-02-21T22:45:39.838Z,5.44
2019-02-21T22:48:06.465Z,5.46
2019-02-21T22:50:33.159Z,5.49
2019-02-21T22:52:59.771Z,5.53
2019-02-21T22:55:26.465Z,5.53
2019-02-21T22:57:53.096Z,5.51
2019-02-21T23:00:54.123Z,5.50
2019-02-21T23:03:20.743Z,5.50
2019-02-21T23:06:06.866Z,5.48
2019-02-21T23:08:52.060Z,5.48
2019-02-21T23:11:19.619Z,5.47
2019-02-21T23:13:47.020Z,5.47
2019-02-21T23:16:13.631Z,5.46
2019-02-21T23:18:40.241Z,5.48
2019-02-21T23:21:06.941Z,5.50
2019-02-21T23:23:33.541Z,5.52
2019-02-21T23:26:00.152Z,5.54
2019-02-21T23:28:26.746Z,5.54
2019-02-21T23:30:53.383Z,5.58
2019-02-21T23:33:20.301Z,5.58
2019-02-21T23:35:47.006Z,5.58
2019-02-21T23:38:13.701Z,5.60
2019-02-21T23:40:40.298Z,5.59
2019-02-21T23:43:06.905Z,5.57
2019-02-21T23:45:33.690Z,5.62
2019-02-21T23:48:00.295Z,5.67
2019-02-21T23:50:27.005Z,5.71
2019-02-21T23:52:53.711Z,5.71
2019-02-21T23:55:20.149Z,5.71
2019-02-21T23:57:46.794Z,5.73
